createdAt,value
2022-09-06T00:01:23.325Z,66.82
2022-09-06T00:03:50.897Z,67.04
2022-09-06T00:06:19.678Z,67.15
2022-09-06T00:08:47.946Z,67.04
2022-09-06T00:11:16.000Z,67.03
2022-09-06T00:13:42.548Z,67.12
2022-09-06T00:16:12.044Z,67.23
2022-09-06T00:18:39.148Z,67.38
2022-09-06T00:21:14.929Z,67.47
2022-09-06T00:23:41.597Z,67.42
2022-09-06T00:26:08.069Z,67.42
2022-09-06T00:28:34.635Z,67.19
2022-09-06T00:31:09.541Z,67.51
2022-09-06T00:33:36.226Z,67.66
2022-09-06T00:36:03.052Z,67.72
2022-09-06T00:38:29.694Z,67.38
2022-09-06T00:40:56.387Z,67.77
2022-09-06T00:43:23.365Z,67.95
2022-09-06T00:45:50.546Z,68.07
2022-09-06T00:48:17.642Z,68.10
2022-09-06T00:50:47.583Z,68.06
2022-09-06T00:53:14.286Z,68.18
2022-09-06T00:55:43.013Z,68.22
2022-09-06T00:58:10.494Z,68.19
2022-09-06T01:00:37.491Z,68.27
2022-09-06T01:03:06.053Z,68.29
2022-09-06T01:06:03.932Z,68.19
2022-09-06T01:08:42.571Z,68.32
2022-09-06T01:11:08.987Z,68.32
2022-09-06T01:14:00.075Z,68.66
2022-09-06T01:16:52.380Z,68.67
2022-09-06T01:19:40.614Z,68.31
2022-09-06T01:22:31.200Z,68.60
2022-09-06T01:25:03.607Z,68.29
2022-09-06T01:28:08.136Z,68.53
2022-09-06T01:30:38.407Z,68.21
2022-09-06T01:33:19.398Z,68.27
2022-09-06T01:35:52.967Z,68.14
2022-09-06T01:38:19.557Z,68.00
2022-09-06T01:40:46.037Z,67.79
2022-09-06T01:43:18.640Z,67.79
2022-09-06T01:46:01.607Z,67.71
2022-09-06T01:49:19.050Z,67.39
2022-09-06T01:52:17.583Z,67.24
2022-09-06T01:54:55.713Z,67.15
2022-09-06T01:57:41.516Z,67.00
2022-09-06T02:00:11.847Z,66.98
2022-09-06T02:03:18.284Z,66.70
2022-09-06T02:05:52.334Z,66.63
2022-09-06T02:08:44.834Z,66.56
2022-09-06T02:11:14.540Z,66.62
2022-09-06T02:13:54.207Z,66.43
2022-09-06T02:16:25.700Z,66.45
2022-09-06T02:19:08.524Z,66.34
2022-09-06T02:21:40.620Z,66.80
2022-09-06T02:24:12.170Z,66.62
2022-09-06T02:26:42.559Z,66.52
2022-09-06T02:29:09.576Z,66.57
2022-09-06T02:31:40.209Z,66.47
2022-09-06T02:34:07.753Z,66.46
2022-09-06T02:36:37.329Z,66.19
2022-09-06T02:39:04.972Z,66.43
2022-09-06T02:41:32.728Z,66.30
2022-09-06T02:43:59.339Z,66.17
2022-09-06T02:46:25.916Z,66.12
2022-09-06T02:48:52.494Z,66.10
2022-09-06T02:51:19.139Z,66.13
2022-09-06T02:53:45.717Z,65.87
2022-09-06T02:56:12.337Z,66.05
2022-09-06T02:58:39.959Z,65.87
2022-09-06T03:01:06.805Z,66.10
2022-09-06T03:03:34.720Z,65.85
2022-09-06T03:06:01.559Z,66.18
2022-09-06T03:08:33.327Z,65.62
2022-09-06T03:11:00.970Z,65.64
2022-09-06T03:13:27.776Z,65.71
2022-09-06T03:15:57.417Z,65.78
2022-09-06T03:18:25.394Z,65.81
2022-09-06T03:20:53.246Z,65.49
2022-09-06T03:23:21.162Z,65.88
2022-09-06T03:25:47.784Z,65.70
2022-09-06T03:28:14.407Z,65.72
2022-09-06T03:30:41.239Z,65.59
2022-09-06T03:33:07.792Z,65.44
2022-09-06T03:35:34.277Z,65.28
2022-09-06T03:38:00.932Z,65.26
2022-09-06T03:40:27.589Z,64.93
2022-09-06T03:42:54.311Z,64.83
2022-09-06T03:45:20.801Z,64.59
2022-09-06T03:47:47.316Z,64.63
2022-09-06T03:50:13.869Z,64.47
2022-09-06T03:52:40.645Z,64.33
2022-09-06T03:55:07.765Z,64.68
2022-09-06T03:57:34.386Z,64.08
2022-09-06T04:00:01.061Z,64.38
2022-09-06T04:02:38.060Z,64.14
2022-09-06T04:05:04.925Z,63.73
2022-09-06T04:07:31.445Z,63.94
2022-09-06T04:09:58.034Z,63.60
2022-09-06T04:12:24.679Z,63.85
2022-09-06T04:14:51.200Z,63.74
2022-09-06T04:17:17.812Z,63.58
2022-09-06T04:19:44.277Z,63.27
2022-09-06T04:22:10.792Z,63.64
2022-09-06T04:24:37.314Z,63.44
2022-09-06T04:27:04.000Z,63.49
2022-09-06T04:29:30.538Z,63.42
2022-09-06T04:31:57.157Z,63.01
2022-09-06T04:34:23.709Z,63.10
2022-09-06T04:36:50.205Z,62.85
2022-09-06T04:39:16.950Z,62.62
2022-09-06T04:41:43.773Z,62.71
2022-09-06T04:44:10.569Z,62.35
2022-09-06T04:46:37.122Z,62.43
2022-09-06T04:49:03.632Z,62.37
2022-09-06T04:51:31.616Z,62.51
2022-09-06T04:53:58.211Z,62.22
2022-09-06T04:56:26.256Z,62.91
2022-09-06T04:58:54.454Z,62.85
2022-09-06T05:01:21.487Z,62.62
2022-09-06T05:03:48.118Z,62.72
2022-09-06T05:06:21.439Z,62.70
2022-09-06T05:08:48.522Z,62.76
2022-09-06T05:11:15.421Z,62.43
2022-09-06T05:13:42.367Z,62.52
2022-09-06T05:16:10.136Z,62.37
2022-09-06T05:18:36.719Z,62.44
2022-09-06T05:21:03.305Z,62.34
2022-09-06T05:23:29.819Z,62.41
2022-09-06T05:25:56.432Z,62.01
2022-09-06T05:28:23.232Z,62.38
2022-09-06T05:30:50.172Z,62.47
2022-09-06T05:33:22.227Z,62.25
2022-09-06T05:35:49.242Z,62.07
2022-09-06T05:38:15.801Z,62.01
2022-09-06T05:40:42.367Z,61.82
2022-09-06T05:43:08.888Z,62.05
2022-09-06T05:45:35.420Z,61.93
2022-09-06T05:48:02.196Z,61.87
2022-09-06T05:50:28.825Z,61.94
2022-09-06T05:52:55.352Z,61.88
2022-09-06T05:55:21.865Z,61.70
2022-09-06T05:57:48.429Z,61.57
2022-09-06T06:00:15.110Z,61.55
2022-09-06T06:02:42.008Z,61.31
2022-09-06T06:05:08.806Z,60.95
2022-09-06T06:07:35.479Z,61.24
2022-09-06T06:10:02.026Z,61.19
2022-09-06T06:12:28.621Z,60.35
2022-09-06T06:14:55.209Z,60.90
2022-09-06T06:17:21.797Z,60.62
2022-09-06T06:19:48.593Z,60.52
2022-09-06T06:22:15.107Z,60.06
2022-09-06T06:24:41.677Z,60.07
2022-09-06T06:27:08.204Z,59.78
2022-09-06T06:29:34.873Z,59.55
2022-09-06T06:32:01.549Z,59.65
2022-09-06T06:34:28.071Z,59.59
2022-09-06T06:36:54.573Z,59.87
2022-09-06T06:39:21.129Z,59.33
2022-09-06T06:41:49.663Z,58.36
2022-09-06T06:44:41.470Z,58.24
2022-09-06T06:47:08.021Z,58.52
2022-09-06T06:49:34.518Z,58.39
2022-09-06T06:52:01.297Z,58.44
2022-09-06T06:54:27.828Z,58.33
2022-09-06T06:56:54.363Z,58.22
2022-09-06T06:59:20.900Z,58.40
2022-09-06T07:01:47.527Z,58.09
2022-09-06T07:04:14.256Z,58.14
2022-09-06T07:12:23.729Z,57.36
2022-09-06T07:14:50.384Z,57.16
2022-09-06T07:17:16.870Z,57.24
2022-09-06T07:22:29.995Z,56.70
2022-09-06T07:24:56.481Z,57.00
2022-09-06T07:30:10.442Z,56.85
2022-09-06T07:32:37.014Z,56.66
2022-09-06T07:35:03.726Z,56.52
2022-09-06T07:37:30.202Z,56.55
2022-09-06T07:39:56.766Z,56.75
2022-09-06T07:42:23.407Z,56.26
2022-09-06T07:44:49.921Z,56.75
2022-09-06T07:53:08.397Z,56.20
2022-09-06T07:55:37.732Z,56.30
2022-09-06T07:58:04.341Z,56.19
2022-09-06T08:00:31.686Z,55.83
2022-09-06T08:02:58.194Z,55.79
2022-09-06T08:10:57.971Z,55.43
2022-09-06T08:13:24.505Z,55.55
2022-09-06T08:16:08.317Z,54.93
2022-09-06T08:18:36.233Z,54.86
2022-09-06T08:21:13.584Z,54.49
2022-09-06T08:23:44.525Z,54.93
2022-09-06T08:26:12.034Z,54.04
2022-09-06T08:28:38.695Z,53.96
2022-09-06T08:31:13.609Z,53.66
2022-09-06T08:33:41.487Z,53.65
2022-09-06T08:36:09.384Z,53.58
2022-09-06T08:38:36.683Z,53.41
2022-09-06T08:41:23.216Z,53.19
2022-09-06T08:46:59.177Z,53.29
2022-09-06T08:49:29.405Z,53.17
2022-09-06T08:52:05.265Z,52.95
2022-09-06T08:54:51.615Z,51.92
2022-09-06T08:57:40.150Z,51.51
2022-09-06T09:00:11.251Z,51.37
2022-09-06T09:02:51.935Z,51.59
2022-09-06T09:05:29.753Z,51.13
2022-09-06T09:08:05.504Z,51.09
2022-09-06T09:10:41.272Z,50.60
2022-09-06T09:13:09.789Z,50.64
2022-09-06T09:15:40.451Z,50.53
2022-09-06T09:18:07.584Z,50.36
2022-09-06T09:20:34.112Z,49.93
2022-09-06T09:23:02.021Z,49.72
2022-09-06T09:25:32.776Z,49.16
2022-09-06T09:28:00.285Z,49.40
2022-09-06T09:30:47.783Z,49.68
2022-09-06T09:33:22.667Z,49.61
2022-09-06T09:35:49.442Z,49.45
2022-09-06T09:38:29.602Z,48.79
2022-09-06T09:41:00.418Z,48.83
2022-09-06T09:43:32.213Z,48.07
2022-09-06T09:46:14.441Z,48.17
2022-09-06T09:48:46.603Z,48.09
2022-09-06T09:51:25.539Z,47.94
2022-09-06T09:53:55.072Z,48.44
2022-09-06T09:56:47.327Z,48.81
2022-09-06T09:59:27.889Z,48.67
2022-09-06T10:02:01.437Z,49.12
2022-09-06T10:07:20.654Z,48.43
2022-09-06T10:09:49.471Z,48.04
2022-09-06T10:12:19.113Z,47.79
2022-09-06T10:14:49.653Z,47.31
2022-09-06T10:17:37.909Z,47.13
2022-09-06T10:20:12.621Z,47.01
2022-09-06T10:22:56.604Z,46.69
2022-09-06T10:25:43.012Z,46.85
2022-09-06T10:28:36.931Z,46.61
2022-09-06T10:31:28.066Z,46.81
2022-09-06T10:34:13.224Z,46.42
2022-09-06T10:36:54.753Z,46.13
2022-09-06T10:39:48.290Z,47.06
2022-09-06T10:42:44.104Z,45.92
2022-09-06T10:45:28.914Z,45.63
2022-09-06T10:48:15.050Z,45.87
2022-09-06T10:50:48.176Z,46.29
2022-09-06T10:53:21.651Z,46.14
2022-09-06T10:55:52.926Z,45.88
2022-09-06T10:58:28.490Z,45.56
2022-09-06T11:00:55.268Z,45.93
2022-09-06T11:06:22.482Z,45.64
2022-09-06T11:09:00.074Z,46.32
2022-09-06T11:11:42.332Z,46.37
2022-09-06T11:14:13.459Z,45.94
2022-09-06T11:16:57.025Z,46.09
2022-09-06T11:19:39.527Z,45.95
2022-09-06T11:22:45.909Z,46.18
2022-09-06T11:25:21.550Z,45.84
2022-09-06T11:27:57.831Z,45.41
2022-09-06T11:30:26.926Z,45.81
2022-09-06T11:33:13.133Z,45.37
2022-09-06T11:35:41.475Z,45.02
2022-09-06T11:38:22.405Z,44.73
2022-09-06T11:41:00.893Z,44.50
2022-09-06T11:43:47.774Z,44.56
2022-09-06T11:46:34.547Z,44.43
2022-09-06T11:49:02.794Z,44.09
2022-09-06T11:51:41.271Z,43.93
2022-09-06T11:54:21.901Z,43.89
2022-09-06T11:57:10.277Z,43.94
2022-09-06T12:00:03.597Z,44.03
2022-09-06T12:02:38.650Z,44.07
2022-09-06T12:05:07.332Z,43.64
2022-09-06T12:07:36.318Z,43.57
2022-09-06T12:10:31.733Z,43.32
2022-09-06T12:12:58.853Z,42.74
2022-09-06T12:15:28.149Z,42.92
2022-09-06T12:17:55.797Z,42.54
2022-09-06T12:20:53.172Z,42.54
2022-09-06T12:23:35.021Z,43.02
2022-09-06T12:26:07.177Z,42.56
2022-09-06T12:28:41.494Z,43.19
2022-09-06T12:31:29.599Z,44.02
2022-09-06T12:33:57.937Z,44.37
2022-09-06T12:36:30.391Z,44.70
2022-09-06T12:39:14.459Z,45.23
2022-09-06T12:41:49.298Z,45.09
2022-09-06T12:44:17.090Z,45.58
2022-09-06T12:46:49.858Z,46.14
2022-09-06T12:49:20.737Z,46.44
2022-09-06T12:51:48.048Z,47.02
2022-09-06T12:54:22.008Z,47.28
2022-09-06T12:56:49.336Z,47.48
2022-09-06T12:59:19.282Z,47.52
2022-09-06T13:01:53.192Z,48.21
2022-09-06T13:04:41.899Z,47.93
2022-09-06T13:07:17.547Z,48.00
2022-09-06T13:09:51.904Z,48.20
2022-09-06T13:12:49.119Z,48.35
2022-09-06T13:15:31.229Z,48.21
2022-09-06T13:18:37.506Z,48.40
2022-09-06T13:21:07.272Z,48.39
2022-09-06T13:23:45.404Z,48.19
2022-09-06T13:26:11.889Z,48.13
2022-09-06T13:28:38.387Z,48.15
2022-09-06T13:31:11.134Z,48.44
2022-09-06T13:33:37.996Z,48.30
2022-09-06T13:36:13.706Z,48.26
2022-09-06T13:38:45.153Z,48.47
2022-09-06T13:41:26.994Z,48.38
2022-09-06T13:44:05.995Z,48.66
2022-09-06T13:46:33.305Z,48.27
2022-09-06T13:49:00.391Z,48.16
2022-09-06T13:51:26.997Z,48.13
2022-09-06T13:54:12.026Z,47.88
2022-09-06T13:56:43.867Z,48.25
2022-09-06T13:59:11.864Z,48.29
2022-09-06T14:01:40.458Z,48.42
2022-09-06T14:04:07.529Z,48.42
2022-09-06T14:06:36.984Z,48.18
2022-09-06T14:09:08.583Z,48.49
2022-09-06T14:11:36.590Z,48.59
2022-09-06T14:14:03.708Z,48.61
2022-09-06T14:16:30.519Z,48.69
2022-09-06T14:18:57.931Z,48.40
2022-09-06T14:21:24.762Z,48.84
2022-09-06T14:23:52.609Z,48.65
2022-09-06T14:26:20.934Z,48.84
2022-09-06T14:28:48.396Z,48.70
2022-09-06T14:31:20.737Z,48.33
2022-09-06T14:33:48.187Z,48.60
2022-09-06T14:36:17.496Z,48.50
2022-09-06T14:38:45.347Z,48.90
2022-09-06T14:41:15.826Z,48.39
2022-09-06T14:43:43.885Z,48.71
2022-09-06T14:46:13.749Z,48.76
2022-09-06T14:48:42.511Z,48.61
2022-09-06T14:51:20.756Z,48.86
2022-09-06T14:53:49.094Z,48.54
2022-09-06T14:56:16.519Z,48.58
2022-09-06T14:58:43.854Z,48.29
2022-09-06T15:01:13.071Z,48.33
2022-09-06T15:03:46.816Z,48.79
2022-09-06T15:06:13.304Z,48.47
2022-09-06T15:08:39.795Z,48.69
2022-09-06T15:11:08.358Z,48.51
2022-09-06T15:13:37.412Z,48.62
2022-09-06T15:16:05.741Z,48.42
2022-09-06T15:18:32.630Z,48.49
2022-09-06T15:21:09.316Z,48.16
2022-09-06T15:23:35.985Z,48.49
2022-09-06T15:26:03.121Z,48.29
2022-09-06T15:28:29.760Z,48.19
2022-09-06T15:30:56.307Z,48.15
2022-09-06T15:33:22.921Z,48.51
2022-09-06T15:35:55.115Z,47.99
2022-09-06T15:38:21.658Z,48.18
2022-09-06T15:40:48.277Z,48.00
2022-09-06T15:43:14.852Z,47.99
2022-09-06T15:45:50.121Z,48.37
2022-09-06T15:48:17.748Z,48.31
2022-09-06T15:50:51.720Z,48.02
2022-09-06T15:53:19.688Z,47.91
2022-09-06T15:55:58.687Z,48.16
2022-09-06T15:58:26.740Z,47.05
2022-09-06T16:01:08.222Z,46.15
2022-09-06T16:03:40.688Z,45.59
2022-09-06T16:06:26.545Z,43.51
2022-09-06T16:09:14.241Z,42.73
2022-09-06T16:11:41.528Z,41.30
2022-09-06T16:14:11.059Z,41.18
2022-09-06T16:16:39.778Z,40.56
2022-09-06T16:19:06.876Z,38.94
2022-09-06T16:21:36.866Z,39.14
2022-09-06T16:24:06.505Z,38.12
2022-09-06T16:26:35.593Z,37.77
2022-09-06T16:29:03.446Z,37.08
2022-09-06T16:31:30.189Z,37.06
2022-09-06T16:33:57.855Z,36.06
2022-09-06T16:36:25.881Z,35.60
2022-09-06T16:38:52.906Z,35.41
2022-09-06T16:41:19.516Z,35.23
2022-09-06T16:43:46.622Z,35.07
2022-09-06T16:46:13.252Z,35.34
2022-09-06T16:48:42.752Z,34.70
2022-09-06T16:51:15.144Z,34.88
2022-09-06T16:53:44.221Z,34.70
2022-09-06T16:56:12.963Z,35.92
2022-09-06T16:58:39.672Z,36.73
2022-09-06T17:01:07.308Z,38.35
2022-09-06T17:03:38.109Z,39.23
2022-09-06T17:06:06.189Z,40.09
2022-09-06T17:08:34.406Z,40.83
2022-09-06T17:11:09.793Z,41.70
2022-09-06T17:13:36.810Z,42.24
2022-09-06T17:19:29.780Z,43.83
2022-09-06T17:21:56.349Z,44.31
2022-09-06T17:24:22.944Z,45.10
2022-09-06T17:26:49.625Z,45.45
2022-09-06T17:29:16.210Z,45.99
2022-09-06T17:31:43.030Z,46.52
2022-09-06T17:34:09.565Z,46.87
2022-09-06T17:36:36.648Z,47.40
2022-09-06T17:39:06.830Z,47.83
2022-09-06T17:41:37.708Z,48.08
2022-09-06T17:44:10.968Z,48.49
2022-09-06T17:46:47.673Z,48.77
2022-09-06T17:49:24.827Z,49.71
2022-09-06T17:51:52.193Z,49.82
2022-09-06T17:54:19.259Z,50.18
2022-09-06T17:56:45.980Z,50.71
2022-09-06T17:59:14.279Z,50.82
2022-09-06T18:01:42.522Z,51.23
2022-09-06T18:04:10.390Z,51.52
2022-09-06T18:06:40.827Z,51.95
2022-09-06T18:09:14.565Z,52.21
2022-09-06T18:11:41.742Z,52.68
2022-09-06T18:14:16.321Z,52.83
2022-09-06T18:16:45.416Z,53.31
2022-09-06T18:19:12.448Z,53.86
2022-09-06T18:21:40.951Z,53.92
2022-09-06T18:24:09.382Z,54.10
2022-09-06T18:26:37.350Z,54.38
2022-09-06T18:29:08.334Z,54.57
2022-09-06T18:31:34.856Z,55.04
2022-09-06T18:34:01.705Z,55.40
2022-09-06T18:36:31.984Z,55.48
2022-09-06T18:39:03.978Z,55.72
2022-09-06T18:41:50.151Z,55.96
2022-09-06T18:44:17.556Z,56.24
2022-09-06T18:46:44.911Z,56.53
2022-09-06T18:49:14.184Z,56.61
2022-09-06T18:51:41.862Z,56.92
2022-09-06T18:54:09.847Z,57.18
2022-09-06T18:56:36.449Z,57.25
2022-09-06T18:59:03.352Z,57.66
2022-09-06T19:01:30.377Z,57.75
2022-09-06T19:03:58.769Z,57.89
2022-09-06T19:06:28.306Z,58.40
2022-09-06T19:08:59.132Z,58.60
2022-09-06T19:11:25.645Z,58.60
2022-09-06T19:13:55.241Z,58.89
2022-09-06T19:16:23.304Z,59.11
2022-09-06T19:18:51.092Z,59.19
2022-09-06T19:21:22.139Z,59.30
2022-09-06T19:23:56.869Z,59.61
2022-09-06T19:26:24.633Z,59.80
2022-09-06T19:28:55.989Z,59.68
2022-09-06T19:31:24.911Z,59.98
2022-09-06T19:33:52.501Z,60.29
2022-09-06T19:36:20.443Z,60.15
2022-09-06T19:39:02.468Z,60.04
2022-09-06T19:41:31.924Z,60.41
2022-09-06T19:43:59.184Z,60.62
2022-09-06T19:46:26.806Z,60.68
2022-09-06T19:48:55.940Z,60.78
2022-09-06T19:51:23.717Z,61.05
2022-09-06T19:53:53.230Z,60.97
2022-09-06T19:56:26.278Z,60.99
2022-09-06T19:58:57.453Z,61.38
2022-09-06T20:01:29.274Z,61.55
2022-09-06T20:03:56.374Z,61.79
2022-09-06T20:06:23.068Z,61.78
2022-09-06T20:08:52.241Z,62.18
2022-09-06T20:11:20.846Z,62.14
2022-09-06T20:13:47.903Z,62.52
2022-09-06T20:16:15.720Z,62.18
2022-09-06T20:18:42.843Z,62.52
2022-09-06T20:21:09.694Z,62.75
2022-09-06T20:23:36.732Z,63.08
2022-09-06T20:26:06.577Z,63.37
2022-09-06T20:28:34.052Z,63.39
2022-09-06T20:31:03.610Z,63.74
2022-09-06T20:33:30.457Z,63.95
2022-09-06T20:36:04.526Z,64.05
2022-09-06T20:38:32.623Z,64.56
2022-09-06T20:41:07.242Z,64.44
2022-09-06T20:43:36.728Z,64.78
2022-09-06T20:46:10.990Z,65.26
2022-09-06T20:48:43.604Z,65.29
2022-09-06T20:51:14.241Z,65.73
2022-09-06T20:53:40.890Z,65.87
2022-09-06T20:56:14.167Z,66.35
2022-09-06T20:58:41.521Z,66.46
2022-09-06T21:01:15.301Z,67.23
2022-09-06T21:03:42.887Z,67.23
2022-09-06T21:06:10.950Z,67.64
2022-09-06T21:08:41.991Z,67.65
2022-09-06T21:11:09.833Z,67.85
2022-09-06T21:13:36.718Z,68.39
2022-09-06T21:16:04.784Z,68.53
2022-09-06T21:18:32.779Z,68.81
2022-09-06T21:21:05.909Z,69.03
2022-09-06T21:23:38.440Z,69.32
2022-09-06T21:26:07.222Z,69.86
2022-09-06T21:28:37.284Z,70.28
2022-09-06T21:31:06.041Z,70.33
2022-09-06T21:33:33.246Z,70.43
2022-09-06T21:36:06.902Z,70.67
2022-09-06T21:38:34.610Z,71.25
2022-09-06T21:41:01.620Z,71.30
2022-09-06T21:43:28.207Z,71.19
2022-09-06T21:45:54.763Z,71.65
2022-09-06T21:48:21.729Z,71.46
2022-09-06T21:50:48.740Z,71.82
2022-09-06T21:53:16.982Z,71.99
2022-09-06T21:55:44.352Z,72.10
2022-09-06T21:58:12.901Z,72.36
2022-09-06T22:00:40.768Z,72.47
2022-09-06T22:03:07.969Z,72.81
2022-09-06T22:05:35.179Z,72.99
2022-09-06T22:08:02.161Z,73.42
2022-09-06T22:10:28.694Z,73.33
2022-09-06T22:12:55.469Z,73.58
2022-09-06T22:15:23.755Z,73.99
2022-09-06T22:17:50.304Z,73.96
2022-09-06T22:20:17.224Z,74.14
2022-09-06T22:22:46.787Z,74.40
2022-09-06T22:25:13.899Z,74.62
2022-09-06T22:27:41.194Z,74.86
2022-09-06T22:30:08.514Z,74.93
2022-09-06T22:32:34.986Z,75.09
2022-09-06T22:35:01.764Z,75.20
2022-09-06T22:37:28.653Z,75.32
2022-09-06T22:39:55.412Z,75.48
2022-09-06T22:42:22.002Z,75.71
2022-09-06T22:44:48.520Z,75.89
2022-09-06T22:47:15.268Z,75.85
2022-09-06T22:49:41.801Z,76.26
2022-09-06T22:52:08.361Z,76.35
2022-09-06T22:54:36.057Z,76.62
2022-09-06T22:57:02.549Z,76.46
2022-09-06T22:59:29.139Z,76.77
2022-09-06T23:01:56.162Z,76.81
2022-09-06T23:04:22.790Z,77.02
2022-09-06T23:06:49.437Z,77.03
2022-09-06T23:09:15.969Z,77.20
2022-09-06T23:11:42.473Z,77.47
2022-09-06T23:14:09.058Z,77.62
2022-09-06T23:16:38.668Z,77.73
2022-09-06T23:19:05.957Z,78.04
2022-09-06T23:21:32.563Z,78.25
2022-09-06T23:23:59.144Z,78.44
2022-09-06T23:26:29.436Z,79.21
2022-09-06T23:28:58.954Z,78.83
2022-09-06T23:31:28.492Z,79.20
2022-09-06T23:33:59.678Z,79.63
2022-09-06T23:36:28.116Z,79.48
2022-09-06T23:38:56.050Z,79.83
2022-09-06T23:41:23.571Z,79.99
2022-09-06T23:43:50.345Z,80.29
2022-09-06T23:46:17.000Z,80.32
2022-09-06T23:48:43.576Z,80.68
2022-09-06T23:51:10.856Z,80.96
2022-09-06T23:53:37.793Z,80.96
2022-09-06T23:56:05.096Z,81.33
2022-09-06T23:58:31.779Z,81.48
